Time;durP1;ratioP1;P1;durP2;ratioP2;P2;SDS_P1;SDS_P2;PMS_P1;PMS_P2;Temp;Humidity;BMP_temperature;BMP_pressure;BME280_temperature;BME280_humidity;BME280_pressure;Samples;Min_cycle;Max_cycle;Signal;HPM_P1;HPM_P2
2023/04/18 00:01:03;;;;;;;;;;;;;;;10.03;95.26;100550.31;5068394;28;20368;-55
2023/04/18 00:03:28;;;;;;;;;;;;;;;9.97;95.49;100544.25;5063644;28;19920;-54
2023/04/18 00:05:54;;;;;;;;;;;;;;;9.99;95.66;100540.69;5068235;28;19928;-55
2023/04/18 00:08:19;;;;;;;;;;;;;;;9.96;95.38;100546.06;5068997;28;20441;-55
2023/04/18 00:10:45;;;;;;;;;;;;;;;9.99;94.78;100547.75;5063399;28;19927;-55
2023/04/18 00:13:10;;;;;;;;;;;;;;;9.96;94.68;100545.19;5069252;28;19924;-54
2023/04/18 00:15:36;;;;;;;;;;;;;;;10.00;94.36;100536.25;5068437;28;20276;-54
2023/04/18 00:18:04;;;;;;;;;;;;;;;9.98;95.02;100538.91;5065859;28;19920;-54
2023/04/18 00:20:30;;;;;;;;;;;;;;;9.91;95.01;100534.66;5063343;28;20364;-54
2023/04/18 00:22:55;;;;;;;;;;;;;;;9.93;95.34;100535.50;5068860;28;19913;-54
2023/04/18 00:25:20;;;;;;;;;;;;;;;9.87;94.86;100522.34;5064254;28;19968;-55
2023/04/18 00:27:46;;;;;;;;;;;;;;;9.92;95.57;100523.09;5058283;28;20333;-54
2023/04/18 00:30:11;;;;;;;;;;;;;;;9.86;95.28;100522.38;5066870;28;19920;-55
2023/04/18 00:32:37;;;;;;;;;;;;;;;9.90;94.69;100519.59;5062865;28;19927;-55
2023/04/18 00:35:02;;;;;;;;;;;;;;;9.91;95.56;100526.69;5072590;28;19917;-54
2023/04/18 00:37:28;;;;;;;;;;;;;;;9.86;95.57;100522.38;5072538;28;19920;-54
2023/04/18 00:39:53;;;;;;;;;;;;;;;9.83;95.14;100527.75;5071564;28;19920;-54
2023/04/18 00:42:24;;;;;;;;;;;;;;;9.81;95.29;100518.94;5072435;28;20336;-54
2023/04/18 00:44:49;;;;;;;;;;;;;;;9.78;95.43;100514.56;5072537;28;20639;-54
2023/04/18 00:47:18;;;;;;;;;;;;;;;9.74;95.60;100518.19;5070718;28;19955;-55
2023/04/18 00:49:43;;;;;;;;;;;;;;;9.69;96.15;100517.41;5071576;28;19916;-55
2023/04/18 00:52:10;;;;;;;;;;;;;;;9.60;95.94;100503.47;5072194;28;19931;-54
2023/04/18 00:54:35;;;;;;;;;;;;;;;9.61;96.40;100515.81;5072347;28;19952;-54
2023/04/18 00:57:01;;;;;;;;;;;;;;;9.59;96.49;100507.88;5070773;28;20028;-54
2023/04/18 00:59:26;;;;;;;;;;;;;;;9.55;96.12;100508.88;5072026;28;19917;-54
2023/04/18 01:01:51;;;;;;;;;;;;;;;9.51;96.50;100503.63;5071595;28;19920;-55
2023/04/18 01:04:16;;;;;;;;;;;;;;;9.53;96.51;100504.47;5072342;28;19920;-55
2023/04/18 01:06:42;;;;;;;;;;;;;;;9.49;96.13;100505.47;5072098;28;19917;-54
2023/04/18 01:09:08;;;;;;;;;;;;;;;9.49;96.63;100501.00;5070599;28;19928;-55
2023/04/18 01:11:34;;;;;;;;;;;;;;;9.48;96.68;100499.28;5070571;28;19916;-55
2023/04/18 01:14:03;;;;;;;;;;;;;;;9.46;96.49;100495.78;5070940;28;19920;-55
2023/04/18 01:16:31;;;;;;;;;;;;;;;9.47;95.81;100494.00;5066866;28;20447;-55
2023/04/18 01:18:57;;;;;;;;;;;;;;;9.46;96.65;100498.44;5054185;28;20375;-54
2023/04/18 01:21:22;;;;;;;;;;;;;;;9.46;96.46;100492.22;5070129;28;19917;-55
2023/04/18 01:23:48;;;;;;;;;;;;;;;9.50;96.54;100497.47;5071551;28;20011;-54
2023/04/18 01:26:13;;;;;;;;;;;;;;;9.46;97.15;100493.13;5070870;28;19912;-54
2023/04/18 01:28:38;;;;;;;;;;;;;;;9.43;96.56;100490.53;5070502;28;19913;-54
2023/04/18 01:31:04;;;;;;;;;;;;;;;9.42;97.43;100479.94;5069999;28;20489;-54
2023/04/18 01:33:29;;;;;;;;;;;;;;;9.39;97.36;100483.53;5064205;28;19924;-55
2023/04/18 01:35:54;;;;;;;;;;;;;;;9.37;97.55;100474.72;5071383;28;19917;-54
2023/04/18 01:38:20;;;;;;;;;;;;;;;9.36;97.58;100478.28;5071052;28;20273;-55
2023/04/18 01:40:45;;;;;;;;;;;;;;;9.38;98.08;100484.44;5071085;28;19912;-55
2023/04/18 01:43:10;;;;;;;;;;;;;;;9.41;97.42;100472.91;5068948;28;19925;-55
2023/04/18 01:45:36;;;;;;;;;;;;;;;9.37;97.63;100474.72;5069854;28;19948;-54
2023/04/18 01:48:01;;;;;;;;;;;;;;;9.37;96.85;100464.13;5069924;28;19971;-55
2023/04/18 01:50:26;;;;;;;;;;;;;;;9.41;97.21;100465.78;5069669;28;20276;-54
2023/04/18 01:52:52;;;;;;;;;;;;;;;9.40;97.27;100458.75;5068481;28;20511;-54
2023/04/18 01:55:17;;;;;;;;;;;;;;;9.37;96.93;100458.81;5068981;28;19916;-54
2023/04/18 01:57:42;;;;;;;;;;;;;;;9.37;96.63;100453.50;5070263;28;19920;-54
2023/04/18 02:00:08;;;;;;;;;;;;;;;9.42;96.44;100462.25;5070316;28;20691;-54
2023/04/18 02:02:33;;;;;;;;;;;;;;;9.38;96.37;100460.53;5071122;28;20372;-55
2023/04/18 02:04:59;;;;;;;;;;;;;;;9.43;96.69;100460.44;5078578;28;19923;-54
2023/04/18 02:07:24;;;;;;;;;;;;;;;9.48;96.13;100464.75;5070487;28;19927;-54
2023/04/18 02:09:49;;;;;;;;;;;;;;;9.52;95.58;100463.81;5071123;28;19965;-54
2023/04/18 02:12:15;;;;;;;;;;;;;;;9.60;94.82;100461.84;5070181;28;20011;-54
2023/04/18 02:14:40;;;;;;;;;;;;;;;9.67;94.90;100455.47;5070509;28;20311;-55
2023/04/18 02:17:05;;;;;;;;;;;;;;;9.71;94.49;100457.16;5070781;28;19921;-55
2023/04/18 02:19:31;;;;;;;;;;;;;;;9.71;93.86;100457.16;5065452;28;19924;-54
2023/04/18 02:21:56;;;;;;;;;;;;;;;9.73;94.87;100455.38;5070420;28;19923;-54
2023/04/18 02:24:21;;;;;;;;;;;;;;;9.70;94.83;100455.44;5069608;28;19920;-54
2023/04/18 02:26:46;;;;;;;;;;;;;;;9.72;94.61;100455.41;5070404;28;20077;-54
2023/04/18 02:29:12;;;;;;;;;;;;;;;9.78;94.56;100460.56;5070088;28;20030;-55
2023/04/18 02:31:40;;;;;;;;;;;;;;;9.84;95.00;100466.63;5070474;28;20007;-54
2023/04/18 02:34:06;;;;;;;;;;;;;;;9.88;93.91;100459.44;5069655;28;19931;-54
2023/04/18 02:36:31;;;;;;;;;;;;;;;9.92;93.90;100463.78;5070332;28;19916;-54
2023/04/18 02:38:57;;;;;;;;;;;;;;;9.91;92.69;100467.34;5070190;28;19916;-55
2023/04/18 02:41:22;;;;;;;;;;;;;;;9.94;92.92;100468.16;5069222;28;19928;-55
2023/04/18 02:43:47;;;;;;;;;;;;;;;10.04;92.61;100472.34;5070347;28;19958;-54
2023/04/18 02:46:13;;;;;;;;;;;;;;;10.07;92.09;100464.31;5066154;28;20394;-54
2023/04/18 02:48:38;;;;;;;;;;;;;;;10.09;92.84;100459.88;5052304;28;19912;-54
2023/04/18 02:51:04;;;;;;;;;;;;;;;10.05;91.99;100459.94;5069206;28;19912;-55
2023/04/18 02:53:29;;;;;;;;;;;;;;;10.10;91.88;100460.72;5068528;28;19981;-54
2023/04/18 02:55:54;;;;;;;;;;;;;;;10.08;90.98;100460.75;5068951;28;19916;-54
2023/04/18 02:58:20;;;;;;;;;;;;;;;10.00;90.66;100461.84;5067054;28;20311;-54
2023/04/18 03:00:45;;;;;;;;;;;;;;;9.93;90.95;100455.78;5063090;28;19917;-54
2023/04/18 03:03:11;;;;;;;;;;;;;;;9.80;91.18;100456.94;5050111;28;19920;-54
2023/04/18 03:05:38;;;;;;;;;;;;;;;9.72;90.86;100456.25;5071237;28;20022;-55
2023/04/18 03:08:03;;;;;;;;;;;;;;;9.69;91.45;100455.44;5069919;28;19955;-55
2023/04/18 03:10:30;;;;;;;;;;;;;;;9.68;91.93;100459.91;5069994;28;20380;-54
2023/04/18 03:12:55;;;;;;;;;;;;;;;9.59;91.97;100454.78;5069997;28;19960;-54
2023/04/18 03:15:20;;;;;;;;;;;;;;;9.55;92.07;100458.41;5068736;28;19952;-54
2023/04/18 03:17:46;;;;;;;;;;;;;;;9.52;92.93;100458.50;5069946;28;19917;-54
2023/04/18 03:20:11;;;;;;;;;;;;;;;9.50;93.02;100460.28;5068394;28;20333;-54
2023/04/18 03:22:36;;;;;;;;;;;;;;;9.46;92.99;100461.25;5069682;28;19966;-54
2023/04/18 03:25:02;;;;;;;;;;;;;;;9.43;93.10;100463.09;5063587;28;19916;-54
2023/04/18 03:27:27;;;;;;;;;;;;;;;9.44;93.08;100465.72;5060296;28;20011;-54
2023/04/18 03:29:52;;;;;;;;;;;;;;;9.43;93.49;100457.78;5068655;28;20015;-55
2023/04/18 03:32:18;;;;;;;;;;;;;;;9.40;93.97;100456.09;5063266;28;20637;-55
2023/04/18 03:34:43;;;;;;;;;;;;;;;9.37;93.92;100453.50;5067416;28;19916;-55
2023/04/18 03:37:08;;;;;;;;;;;;;;;9.32;94.21;100450.06;5068549;28;19917;-54
2023/04/18 03:39:33;;;;;;;;;;;;;;;9.35;94.16;100452.66;5068803;28;19922;-54
2023/04/18 03:42:00;;;;;;;;;;;;;;;9.35;94.40;100457.97;5069194;28;19920;-54
2023/04/18 03:44:25;;;;;;;;;;;;;;;9.38;94.55;100449.03;5069457;28;19977;-54
2023/04/18 03:46:50;;;;;;;;;;;;;;;9.40;94.47;100450.78;5067957;28;19920;-54
2023/04/18 03:49:16;;;;;;;;;;;;;;;9.43;94.43;100447.16;5068881;28;19912;-54
2023/04/18 03:51:42;;;;;;;;;;;;;;;9.40;94.15;100448.13;5068821;28;20012;-54
2023/04/18 03:54:08;;;;;;;;;;;;;;;9.38;94.72;100447.28;5069198;28;20000;-54
2023/04/18 03:56:33;;;;;;;;;;;;;;;9.38;94.72;100449.94;5068254;28;20007;-54
2023/04/18 03:58:59;;;;;;;;;;;;;;;9.40;95.13;100448.13;5069303;28;19917;-55
2023/04/18 04:01:24;;;;;;;;;;;;;;;9.42;94.29;100443.66;5069332;28;20376;-54
2023/04/18 04:03:49;;;;;;;;;;;;;;;9.47;94.35;100444.44;5073033;28;19923;-54
2023/04/18 04:06:16;;;;;;;;;;;;;;;9.44;94.97;100441.81;5091472;28;19916;-54
2023/04/18 04:08:41;;;;;;;;;;;;;;;9.46;94.74;100447.97;5075309;28;19924;-54
2023/04/18 04:11:07;;;;;;;;;;;;;;;9.46;94.33;100453.28;5072971;28;20271;-54
2023/04/18 04:13:32;;;;;;;;;;;;;;;9.51;94.65;100451.41;5055596;28;20285;-54
2023/04/18 04:15:57;;;;;;;;;;;;;;;9.55;94.13;100446.91;5052997;28;19916;-54
2023/04/18 04:18:28;;;;;;;;;;;;;;;9.63;93.97;100450.28;5068188;28;19920;-54
2023/04/18 04:20:54;;;;;;;;;;;;;;;9.72;94.55;100458.91;5072497;28;20019;-54
2023/04/18 04:23:19;;;;;;;;;;;;;;;9.74;94.18;100451.78;5072410;28;20007;-54
2023/04/18 04:25:45;;;;;;;;;;;;;;;9.74;93.37;100453.56;5069740;28;20470;-55
2023/04/18 04:28:12;;;;;;;;;;;;;;;9.73;93.76;100467.75;5069891;28;20336;-54
2023/04/18 04:30:40;;;;;;;;;;;;;;;9.79;94.09;100455.22;5064958;28;19913;-55
2023/04/18 04:33:06;;;;;;;;;;;;;;;9.80;94.33;100464.91;5049832;28;20446;-55
2023/04/18 04:35:33;;;;;;;;;;;;;;;9.81;93.87;100461.38;5054519;28;19956;-54
2023/04/18 04:38:00;;;;;;;;;;;;;;;9.85;93.36;100463.03;5069124;28;19924;-54
2023/04/18 04:40:26;;;;;;;;;;;;;;;9.91;93.67;100462.03;5071952;28;19974;-55
2023/04/18 04:42:53;;;;;;;;;;;;;;;9.90;93.18;100466.47;5071034;28;19928;-55
2023/04/18 04:45:19;;;;;;;;;;;;;;;9.92;92.67;100474.41;5072055;28;19913;-55
2023/04/18 04:47:44;;;;;;;;;;;;;;;9.90;93.02;100473.59;5071554;28;19939;-54
2023/04/18 04:50:14;;;;;;;;;;;;;;;9.95;93.35;100466.38;5057641;28;19917;-54
2023/04/18 04:52:39;;;;;;;;;;;;;;;9.98;92.43;100480.44;5050761;28;19932;-54
2023/04/18 04:55:05;;;;;;;;;;;;;;;9.96;92.60;100476.97;5058627;28;19927;-54
2023/04/18 04:57:30;;;;;;;;;;;;;;;10.00;92.22;100478.63;5069954;28;19925;-54
2023/04/18 04:59:55;;;;;;;;;;;;;;;10.06;92.72;100475.84;5072066;28;19920;-54
2023/04/18 05:02:22;;;;;;;;;;;;;;;10.04;92.54;100479.44;5071493;28;19931;-54
2023/04/18 05:04:47;;;;;;;;;;;;;;;10.02;91.12;100479.47;5078240;28;19923;-54
2023/04/18 05:07:12;;;;;;;;;;;;;;;10.02;91.14;100470.63;5081999;28;19920;-54
2023/04/18 05:09:38;;;;;;;;;;;;;;;9.99;90.13;100476.00;5071991;28;20408;-55
2023/04/18 05:12:03;;;;;;;;;;;;;;;10.00;90.21;100483.94;5072021;28;19962;-54
2023/04/18 05:14:29;;;;;;;;;;;;;;;10.06;89.53;100482.94;5070208;28;20001;-55
2023/04/18 05:16:55;;;;;;;;;;;;;;;10.08;90.23;100490.00;5071423;28;19916;-54
2023/04/18 05:19:20;;;;;;;;;;;;;;;10.08;89.90;100492.66;5069727;28;19917;-54
2023/04/18 05:21:45;;;;;;;;;;;;;;;10.09;89.09;100488.22;5071030;28;19955;-54
2023/04/18 05:24:11;;;;;;;;;;;;;;;10.12;88.63;100489.03;5070249;28;19920;-55
2023/04/18 05:26:36;;;;;;;;;;;;;;;10.19;89.54;100498.63;5070689;28;19921;-54
2023/04/18 05:29:02;;;;;;;;;;;;;;;10.15;88.71;100493.38;5071009;28;19948;-54
2023/04/18 05:31:27;;;;;;;;;;;;;;;10.20;88.54;100492.38;5062368;28;19913;-55
2023/04/18 05:33:52;;;;;;;;;;;;;;;10.17;88.53;100492.44;5051423;28;19932;-55
2023/04/18 05:36:17;;;;;;;;;;;;;;;10.16;88.12;100484.53;5051317;28;19913;-54
2023/04/18 05:38:43;;;;;;;;;;;;;;;10.15;88.13;100488.94;5055690;28;19954;-54
2023/04/18 05:41:08;;;;;;;;;;;;;;;10.16;88.35;100485.41;5070510;28;20686;-54
2023/04/18 05:43:33;;;;;;;;;;;;;;;10.26;88.59;100483.41;5071486;28;19985;-54
2023/04/18 05:45:58;;;;;;;;;;;;;;;10.20;87.38;100489.72;5070221;28;19916;-54
2023/04/18 05:48:24;;;;;;;;;;;;;;;10.14;88.11;100500.50;5071201;28;19963;-54
2023/04/18 05:50:49;;;;;;;;;;;;;;;10.23;87.73;100492.28;5057289;28;20403;-55
2023/04/18 05:53:14;;;;;;;;;;;;;;;10.30;87.42;100491.25;5071149;28;20045;-55
2023/04/18 05:55:40;;;;;;;;;;;;;;;10.35;88.29;100492.00;5070138;28;19924;-55
2023/04/18 05:58:06;;;;;;;;;;;;;;;10.35;87.94;100481.38;5070874;28;19924;-54
2023/04/18 06:00:31;;;;;;;;;;;;;;;10.38;87.61;100478.63;5070057;28;20333;-54
2023/04/18 06:02:56;;;;;;;;;;;;;;;10.35;86.36;100478.72;5070605;28;19916;-54
2023/04/18 06:05:21;;;;;;;;;;;;;;;10.46;87.60;100479.31;5081583;28;19916;-54
2023/04/18 06:07:47;;;;;;;;;;;;;;;10.45;87.39;100479.38;5084814;28;20378;-54
2023/04/18 06:10:12;;;;;;;;;;;;;;;10.32;85.02;100476.13;5070756;28;19917;-54
2023/04/18 06:12:38;;;;;;;;;;;;;;;10.37;86.16;100468.94;5070756;28;20074;-54
2023/04/18 06:15:04;;;;;;;;;;;;;;;10.39;84.98;100475.06;5065213;28;20431;-54
2023/04/18 06:17:30;;;;;;;;;;;;;;;10.54;85.32;100474.69;5060182;28;19920;-54
2023/04/18 06:19:55;;;;;;;;;;;;;;;10.52;84.69;100487.16;5064758;28;19951;-54
2023/04/18 06:22:20;;;;;;;;;;;;;;;10.44;83.88;100505.06;5069650;28;20438;-54
2023/04/18 06:24:45;;;;;;;;;;;;;;;10.35;83.95;100507.97;5068214;28;19927;-53
2023/04/18 06:27:11;;;;;;;;;;;;;;;10.37;83.16;100511.47;5069565;28;19917;-54
2023/04/18 06:29:36;;;;;;;;;;;;;;;10.36;83.47;100530.13;5068890;28;19920;-54
2023/04/18 06:32:02;;;;;;;;;;;;;;;10.44;83.90;100529.00;5053675;28;19917;-54
2023/04/18 06:34:27;;;;;;;;;;;;;;;10.43;83.96;100532.59;5054814;28;20324;-54
2023/04/18 06:36:53;;;;;;;;;;;;;;;10.42;83.50;100536.16;5070265;28;19920;-54
2023/04/18 06:39:18;;;;;;;;;;;;;;;10.40;83.20;100526.47;5069262;28;19924;-54
2023/04/18 06:41:43;;;;;;;;;;;;;;;10.36;83.07;100516.84;5070356;28;19924;-54
2023/04/18 06:44:08;;;;;;;;;;;;;;;10.35;82.88;100523.91;5070336;28;20481;-54
2023/04/18 06:46:34;;;;;;;;;;;;;;;10.37;82.15;100540.72;5061289;28;19917;-54
2023/04/18 06:48:59;;;;;;;;;;;;;;;10.42;82.28;100546.81;5069234;28;19986;-54
2023/04/18 06:51:24;;;;;;;;;;;;;;;10.36;81.86;100541.63;5058766;28;20304;-54
2023/04/18 06:53:51;;;;;;;;;;;;;;;10.51;83.30;100540.38;5058937;28;19921;-54
2023/04/18 06:56:20;;;;;;;;;;;;;;;10.63;83.99;100524.13;5065301;28;19921;-54
2023/04/18 06:58:45;;;;;;;;;;;;;;;10.61;82.94;100532.16;5057390;28;19974;-54
2023/04/18 07:01:11;;;;;;;;;;;;;;;10.71;83.46;100530.13;5063609;28;19925;-54
2023/04/18 07:03:36;;;;;;;;;;;;;;;10.79;82.28;100524.63;5066697;28;19913;-54
2023/04/18 07:06:02;;;;;;;;;;;;;;;10.74;82.38;100526.53;5063174;28;20446;-54
2023/04/18 07:08:27;;;;;;;;;;;;;;;10.75;81.24;100525.59;5059819;28;19916;-54
2023/04/18 07:10:52;;;;;;;;;;;;;;;10.88;81.54;100519.06;5066186;28;19986;-54
2023/04/18 07:13:17;;;;;;;;;;;;;;;10.88;80.03;100513.72;5069173;28;19967;-54
2023/04/18 07:15:43;;;;;;;;;;;;;;;10.98;81.80;100515.25;5069844;28;19973;-54
2023/04/18 07:18:08;;;;;;;;;;;;;;;10.94;82.29;100518.91;5069338;28;20035;-54
2023/04/18 07:20:33;;;;;;;;;;;;;;;10.99;80.64;100514.34;5069906;28;19981;-53
2023/04/18 07:22:59;;;;;;;;;;;;;;;10.87;81.36;100528.84;5069599;28;19917;-54
2023/04/18 07:25:24;;;;;;;;;;;;;;;10.80;81.61;100537.88;5069512;28;19954;-54
2023/04/18 07:27:49;;;;;;;;;;;;;;;10.92;81.55;100532.28;5068632;28;19969;-54
2023/04/18 07:30:15;;;;;;;;;;;;;;;10.95;81.79;100531.28;5058091;28;20372;-54
2023/04/18 07:32:40;;;;;;;;;;;;;;;10.85;81.64;100536.00;5061348;28;19994;-54
2023/04/18 07:35:05;;;;;;;;;;;;;;;10.92;81.75;100537.59;5068278;28;19973;-54
2023/04/18 07:37:31;;;;;;;;;;;;;;;10.78;82.98;100538.81;5058317;28;19924;-54
2023/04/18 07:39:56;;;;;;;;;;;;;;;10.74;83.52;100534.50;5065432;28;19924;-54
2023/04/18 07:42:21;;;;;;;;;;;;;;;10.74;82.46;100537.16;5067115;28;20441;-54
2023/04/18 07:44:48;;;;;;;;;;;;;;;10.88;83.21;100533.25;5072544;28;19930;-54
2023/04/18 07:47:13;;;;;;;;;;;;;;;10.85;83.46;100541.31;5061910;28;19913;-54
2023/04/18 07:49:38;;;;;;;;;;;;;;;10.80;83.90;100545.00;5060446;28;19916;-54
2023/04/18 07:52:04;;;;;;;;;;;;;;;10.86;83.68;100542.16;5064981;28;20368;-54
2023/04/18 07:54:29;;;;;;;;;;;;;;;10.97;83.88;100533.00;5073330;28;19969;-54
2023/04/18 07:56:55;;;;;;;;;;;;;;;10.98;83.38;100531.22;5070303;28;19970;-54
2023/04/18 07:59:21;;;;;;;;;;;;;;;10.98;82.88;100547.19;5054687;28;19917;-54
2023/04/18 08:01:46;;;;;;;;;;;;;;;11.02;82.26;100549.72;5065487;28;20673;-54
2023/04/18 08:04:11;;;;;;;;;;;;;;;11.01;82.62;100547.97;5067449;28;19952;-54
2023/04/18 08:06:37;;;;;;;;;;;;;;;11.10;82.90;100552.19;5088962;28;19992;-54
2023/04/18 08:09:04;;;;;;;;;;;;;;;10.96;81.52;100544.56;5071383;28;19917;-54
2023/04/18 08:11:30;;;;;;;;;;;;;;;11.00;82.63;100551.56;5070793;28;19923;-54
2023/04/18 08:13:55;;;;;;;;;;;;;;;11.06;82.74;100554.06;5059260;28;20587;-54
2023/04/18 08:16:20;;;;;;;;;;;;;;;10.98;82.71;100549.84;5069355;28;20064;-54
2023/04/18 08:18:45;;;;;;;;;;;;;;;10.85;81.69;100551.97;5064492;28;19924;-54
2023/04/18 08:21:11;;;;;;;;;;;;;;;10.91;82.40;100556.22;5067321;28;19954;-54
2023/04/18 08:23:36;;;;;;;;;;;;;;;10.87;83.68;100541.28;5056265;28;20328;-54
2023/04/18 08:26:02;;;;;;;;;;;;;;;10.78;82.39;100539.72;5068651;28;20510;-54
2023/04/18 08:28:27;;;;;;;;;;;;;;;10.71;82.22;100545.25;5059343;28;19942;-54
2023/04/18 08:30:54;;;;;;;;;;;;;;;10.76;82.72;100553.97;5060176;28;19920;-54
2023/04/18 08:33:20;;;;;;;;;;;;;;;10.97;84.44;100545.44;5071518;28;19927;-54
2023/04/18 08:35:46;;;;;;;;;;;;;;;10.97;84.46;100558.75;5072408;28;20348;-54
2023/04/18 08:38:11;;;;;;;;;;;;;;;10.94;85.08;100558.84;5071985;28;20041;-54
2023/04/18 08:40:36;;;;;;;;;;;;;;;11.11;85.37;100556.59;5066152;28;20293;-54
2023/04/18 08:43:06;;;;;;;;;;;;;;;11.07;84.40;100563.78;5071506;28;19925;-54
2023/04/18 08:45:32;;;;;;;;;;;;;;;11.14;85.30;100570.72;5053811;28;19920;-54
2023/04/18 08:48:00;;;;;;;;;;;;;;;11.19;83.66;100562.59;5058922;28;20050;-54
2023/04/18 08:50:26;;;;;;;;;;;;;;;11.18;85.03;100563.50;5058356;28;20007;-54
2023/04/18 08:52:53;;;;;;;;;;;;;;;11.33;84.27;100550.69;5067643;28;20332;-54
2023/04/18 08:55:21;;;;;;;;;;;;;;;11.40;83.71;100554.06;5059351;28;19920;-54
2023/04/18 08:57:46;;;;;;;;;;;;;;;11.49;82.67;100561.78;5055070;28;20465;-54
2023/04/18 09:00:12;;;;;;;;;;;;;;;11.57;83.14;100554.44;5052413;28;20007;-54
2023/04/18 09:02:41;;;;;;;;;;;;;;;11.67;83.39;100550.63;5063560;28;19917;-54
2023/04/18 09:05:10;;;;;;;;;;;;;;;11.81;82.22;100548.47;5075856;28;19916;-54
2023/04/18 09:07:36;;;;;;;;;;;;;;;11.88;81.83;100553.56;5092251;28;19912;-54
2023/04/18 09:10:01;;;;;;;;;;;;;;;11.82;80.64;100551.09;5091361;28;20307;-54
2023/04/18 09:12:27;;;;;;;;;;;;;;;12.06;80.96;100549.47;5071253;28;19929;-54
2023/04/18 09:14:56;;;;;;;;;;;;;;;12.16;80.13;100555.41;5071787;28;19927;-54
2023/04/18 09:17:30;;;;;;;;;;;;;;;12.17;80.40;100552.69;5071720;28;19919;-54
2023/04/18 09:19:56;;;;;;;;;;;;;;;12.46;79.15;100555.31;5069933;28;19924;-54
2023/04/18 09:22:22;;;;;;;;;;;;;;;12.63;79.08;100553.00;5071109;28;19959;-54
2023/04/18 09:24:52;;;;;;;;;;;;;;;12.91;77.60;100552.97;5068938;28;19967;-54
2023/04/18 09:27:17;;;;;;;;;;;;;;;13.16;77.83;100554.75;5066553;28;20459;-54
2023/04/18 09:29:48;;;;;;;;;;;;;;;13.38;76.38;100559.38;5056744;28;19928;-54
2023/04/18 09:32:22;;;;;;;;;;;;;;;13.51;74.67;100556.19;5064421;28;20007;-54
2023/04/18 09:34:48;;;;;;;;;;;;;;;13.49;74.33;100546.50;5068264;28;20376;-54
2023/04/18 09:37:13;;;;;;;;;;;;;;;13.90;74.91;100556.56;5062364;28;19974;-54
2023/04/18 09:39:40;;;;;;;;;;;;;;;14.34;73.03;100561.09;5063122;28;19917;-54
2023/04/18 09:42:05;;;;;;;;;;;;;;;14.60;70.44;100550.22;5071210;28;19935;-54
2023/04/18 09:44:31;;;;;;;;;;;;;;;14.63;69.83;100555.44;5061899;28;20338;-54
2023/04/18 09:46:56;;;;;;;;;;;;;;;14.64;69.40;100553.66;5064095;28;19920;-54
2023/04/18 09:49:22;;;;;;;;;;;;;;;14.79;69.23;100558.38;5070948;28;20295;-55
2023/04/18 09:51:49;;;;;;;;;;;;;;;15.18;70.33;100556.72;5062492;28;19921;-54
2023/04/18 09:54:16;;;;;;;;;;;;;;;15.25;67.11;100553.72;5049075;28;19928;-54
2023/04/18 09:56:45;;;;;;;;;;;;;;;15.36;67.14;100556.81;5049267;28;19924;-54
2023/04/18 09:59:11;;;;;;;;;;;;;;;15.33;64.20;100551.56;5065464;28;19920;-54
2023/04/18 10:01:38;;;;;;;;;;;;;;;15.03;65.02;100563.59;5067835;28;20432;-54
2023/04/18 10:04:05;;;;;;;;;;;;;;;14.81;67.26;100559.19;5069137;28;19912;-54
2023/04/18 10:06:33;;;;;;;;;;;;;;;14.97;68.83;100568.34;5086034;28;20155;-54
2023/04/18 10:08:59;;;;;;;;;;;;;;;15.13;68.76;100553.34;5070354;28;19920;-54
2023/04/18 10:11:24;;;;;;;;;;;;;;;15.45;68.95;100547.53;5070848;28;19954;-54
2023/04/18 10:13:52;;;;;;;;;;;;;;;15.66;68.65;100555.50;5069701;28;19924;-54
2023/04/18 10:16:19;;;;;;;;;;;;;;;15.64;64.64;100552.00;5062642;28;19931;-54
2023/04/18 10:18:45;;;;;;;;;;;;;;;15.60;66.06;100546.84;5055196;28;19920;-54
2023/04/18 10:21:10;;;;;;;;;;;;;;;15.94;66.64;100544.38;5070583;28;19923;-54
2023/04/18 10:23:37;;;;;;;;;;;;;;;15.80;65.43;100547.69;5070556;28;20007;-54
2023/04/18 10:26:03;;;;;;;;;;;;;;;15.81;65.38;100553.94;5064923;28;19973;-54
2023/04/18 10:28:47;;;;;;;;;;;;;;;15.99;64.55;100552.19;5070506;28;20391;-55
2023/04/18 10:31:14;;;;;;;;;;;;;;;15.88;67.18;100549.16;5069935;28;19924;-54
2023/04/18 10:33:44;;;;;;;;;;;;;;;15.82;66.86;100545.81;5069741;28;19917;-54
2023/04/18 10:36:15;;;;;;;;;;;;;;;15.98;64.66;100545.09;5069009;28;19997;-54
2023/04/18 10:38:51;;;;;;;;;;;;;;;16.07;66.01;100539.28;5069432;28;19923;-55
2023/04/18 10:41:27;;;;;;;;;;;;;;;16.50;65.61;100539.03;5069841;28;19920;-54
2023/04/18 10:44:07;;;;;;;;;;;;;;;16.70;65.92;100538.94;5070435;28;20378;-54
2023/04/18 10:47:02;;;;;;;;;;;;;;;16.94;64.02;100535.91;5070321;28;19962;-54
2023/04/18 10:49:28;;;;;;;;;;;;;;;16.69;62.08;100537.19;5068643;28;19920;-54
2023/04/18 10:51:54;;;;;;;;;;;;;;;16.67;61.38;100533.72;5070249;28;19916;-55
2023/04/18 10:54:31;;;;;;;;;;;;;;;16.86;63.74;100526.47;5069269;28;20471;-55
2023/04/18 10:56:57;;;;;;;;;;;;;;;16.78;61.76;100537.63;5068719;28;19951;-55
2023/04/18 10:59:23;;;;;;;;;;;;;;;16.66;63.00;100534.66;5068723;28;19921;-55
2023/04/18 11:01:54;;;;;;;;;;;;;;;16.93;64.08;100531.47;5058705;28;19917;-55
2023/04/18 11:04:19;;;;;;;;;;;;;;;16.96;63.11;100522.38;5058487;28;19920;-54
2023/04/18 11:06:56;;;;;;;;;;;;;;;17.04;63.81;100521.06;5077378;28;19988;-54
2023/04/18 11:09:21;;;;;;;;;;;;;;;17.00;63.93;100515.94;5067680;28;19917;-54
2023/04/18 11:12:01;;;;;;;;;;;;;;;17.74;61.11;100510.19;5068373;28;20585;-55
2023/04/18 11:14:37;;;;;;;;;;;;;;;18.74;60.02;100502.75;5069719;28;19921;-55
2023/04/18 11:17:19;;;;;;;;;;;;;;;19.42;58.12;100494.13;5068823;28;20005;-55
2023/04/18 11:19:45;;;;;;;;;;;;;;;20.08;55.11;100497.13;5069762;28;19928;-55
2023/04/18 11:22:10;;;;;;;;;;;;;;;20.59;51.24;100495.63;5068844;28;20296;-55
2023/04/18 11:24:35;;;;;;;;;;;;;;;21.14;53.78;100495.50;5069667;28;20375;-54
2023/04/18 11:27:02;;;;;;;;;;;;;;;21.43;51.60;100497.09;5070023;28;20045;-55
2023/04/18 11:29:27;;;;;;;;;;;;;;;21.51;48.31;100495.59;5068019;28;20355;-55
2023/04/18 11:31:53;;;;;;;;;;;;;;;21.74;49.24;100485.84;5067895;28;19924;-55
2023/04/18 11:34:18;;;;;;;;;;;;;;;22.07;48.46;100499.72;5049887;28;20399;-55
2023/04/18 11:36:47;;;;;;;;;;;;;;;22.37;48.15;100493.94;5061901;28;19923;-54
2023/04/18 11:39:13;;;;;;;;;;;;;;;22.97;50.32;100483.94;5067993;28;20343;-55
2023/04/18 11:41:39;;;;;;;;;;;;;;;22.80;46.15;100485.22;5056878;28;19923;-55
2023/04/18 11:44:04;;;;;;;;;;;;;;;22.88;47.30;100488.22;5067429;28;19931;-55
2023/04/18 11:46:37;;;;;;;;;;;;;;;22.90;46.46;100486.25;5067737;28;19912;-55
2023/04/18 11:49:02;;;;;;;;;;;;;;;22.80;46.34;100490.63;5065501;28;20694;-55
2023/04/18 11:51:31;;;;;;;;;;;;;;;22.11;47.66;100482.25;5067078;28;19961;-55
2023/04/18 11:53:57;;;;;;;;;;;;;;;22.08;47.75;100491.50;5069239;28;19931;-54
2023/04/18 11:56:22;;;;;;;;;;;;;;;21.19;47.92;100485.25;5069732;28;19913;-55
2023/04/18 11:58:47;;;;;;;;;;;;;;;20.72;48.81;100483.88;5069648;28;20015;-54
2023/04/18 12:01:15;;;;;;;;;;;;;;;20.73;49.91;100485.63;5068606;28;19917;-55
2023/04/18 12:03:42;;;;;;;;;;;;;;;20.85;49.88;100484.81;5069491;28;19920;-55
2023/04/18 12:06:07;;;;;;;;;;;;;;;20.20;50.12;100490.97;5076822;28;19923;-55
2023/04/18 12:08:33;;;;;;;;;;;;;;;19.66;53.02;100494.44;5068969;28;19913;-55
2023/04/18 12:10:58;;;;;;;;;;;;;;;19.28;52.99;100493.19;5063810;28;20503;-55
2023/04/18 12:13:25;;;;;;;;;;;;;;;18.97;54.04;100493.28;5049426;28;19928;-55
2023/04/18 12:15:51;;;;;;;;;;;;;;;18.85;53.66;100483.22;5060432;28;19920;-54
2023/04/18 12:18:17;;;;;;;;;;;;;;;18.79;55.39;100489.88;5069405;28;20301;-55
2023/04/18 12:20:48;;;;;;;;;;;;;;;18.78;55.49;100479.16;5069099;28;20841;-55
2023/04/18 12:23:34;;;;;;;;;;;;;;;18.80;56.04;100488.91;5070775;28;20570;-55
2023/04/18 12:26:06;;;;;;;;;;;;;;;18.56;55.58;100486.75;5071798;28;19966;-55
2023/04/18 12:28:32;;;;;;;;;;;;;;;18.28;56.57;100488.31;5072637;28;19991;-55
2023/04/18 12:30:58;;;;;;;;;;;;;;;17.98;59.07;100473.88;5071644;28;19952;-55
2023/04/18 12:33:23;;;;;;;;;;;;;;;17.91;59.18;100487.72;5071456;28;20459;-55
2023/04/18 12:35:48;;;;;;;;;;;;;;;17.83;60.24;100488.16;5070844;28;19924;-54